createdAt,value
2022-08-17T00:00:11.991Z,97294.29
2022-08-17T00:03:05.955Z,97299.36
2022-08-17T00:05:37.887Z,97303.36
2022-08-17T00:08:05.713Z,97302.48
2022-08-17T00:10:33.638Z,97299.73
2022-08-17T00:13:05.539Z,97296.13
2022-08-17T00:15:33.775Z,97292.69
2022-08-17T00:18:01.782Z,97289.35
2022-08-17T00:20:33.600Z,97285.67
2022-08-17T00:23:04.418Z,97287.42
2022-08-17T00:25:32.712Z,97285.77
2022-08-17T00:28:00.924Z,97287.34
2022-08-17T00:30:29.551Z,97290.55
2022-08-17T00:33:14.482Z,97287.98
2022-08-17T00:35:45.950Z,97281.52
2022-08-17T00:38:13.965Z,97275.52
2022-08-17T00:40:44.876Z,97274.86
2022-08-17T00:43:18.909Z,97270.07
2022-08-17T00:45:47.917Z,97268.14
2022-08-17T00:48:29.851Z,97272.89
2022-08-17T00:50:58.325Z,97280.32
2022-08-17T00:53:28.981Z,97276.27
2022-08-17T00:55:58.161Z,97279.17
2022-08-17T00:58:35.827Z,97277.29
2022-08-17T01:01:05.747Z,97281.56
2022-08-17T01:03:35.297Z,97283.60
2022-08-17T01:06:04.494Z,97284.06
2022-08-17T01:08:34.426Z,97281.63
2022-08-17T01:11:02.863Z,97283.84
2022-08-17T01:13:39.779Z,97281.98
2022-08-17T01:16:20.954Z,97282.52
2022-08-17T01:18:50.836Z,97287.14
2022-08-17T01:21:32.161Z,97290.73
2022-08-17T01:24:00.740Z,97292.30
2022-08-17T01:26:29.972Z,97296.13
2022-08-17T01:28:57.812Z,97291.02
2022-08-17T01:31:28.842Z,97288.29
2022-08-17T01:33:59.621Z,97285.05
2022-08-17T01:36:29.572Z,97283.59
2022-08-17T01:38:57.561Z,97286.35
2022-08-17T01:41:26.003Z,97283.99
2022-08-17T01:43:59.241Z,97282.96
2022-08-17T01:46:28.968Z,97276.80
2022-08-17T01:48:57.675Z,97275.18
2022-08-17T01:51:29.590Z,97284.29
2022-08-17T01:53:58.511Z,97284.16
2022-08-17T01:56:28.900Z,97278.83
2022-08-17T01:58:57.054Z,97277.77
2022-08-17T02:01:26.653Z,97282.42
2022-08-17T02:04:00.487Z,97276.08
2022-08-17T02:06:31.423Z,97278.46
2022-08-17T02:09:16.643Z,97281.13
2022-08-17T02:11:45.357Z,97284.62
2022-08-17T02:14:14.492Z,97288.04
2022-08-17T02:16:42.424Z,97285.40
2022-08-17T02:19:12.366Z,97287.60
2022-08-17T02:21:41.463Z,97286.66
2022-08-17T02:24:11.783Z,97286.95
2022-08-17T02:26:41.077Z,97285.91
2022-08-17T02:29:09.065Z,97290.70
2022-08-17T02:31:38.062Z,97288.04
2022-08-17T02:34:06.371Z,97287.52
2022-08-17T02:36:35.065Z,97288.14
2022-08-17T02:39:04.598Z,97284.05
2022-08-17T02:41:33.320Z,97286.00
2022-08-17T02:44:01.230Z,97287.06
2022-08-17T02:46:30.532Z,97291.48
2022-08-17T02:48:59.191Z,97298.32
2022-08-17T02:51:27.705Z,97296.13
2022-08-17T02:54:39.170Z,97298.12
2022-08-17T02:56:44.169Z,97298.40
2022-08-17T02:59:11.921Z,97300.23
2022-08-17T03:01:39.744Z,97298.67
2022-08-17T03:04:08.172Z,97300.91
2022-08-17T03:06:37.441Z,97302.35
2022-08-17T03:09:05.284Z,97305.78
2022-08-17T03:11:33.141Z,97314.85
2022-08-17T03:14:00.961Z,97317.27
2022-08-17T03:16:28.714Z,97322.15
2022-08-17T03:18:57.096Z,97322.54
2022-08-17T03:21:25.073Z,97321.84
2022-08-17T03:23:54.608Z,97319.23
2022-08-17T03:26:22.848Z,97321.13
2022-08-17T03:28:50.675Z,97322.88
2022-08-17T03:31:18.918Z,97324.30
2022-08-17T03:33:47.009Z,97328.95
2022-08-17T03:36:15.003Z,97329.34
2022-08-17T03:38:42.902Z,97332.20
2022-08-17T03:41:14.026Z,97340.36
2022-08-17T03:43:41.883Z,97344.39
2022-08-17T03:46:35.289Z,97346.80
2022-08-17T03:49:23.746Z,97347.72
2022-08-17T03:52:10.579Z,97351.33
2022-08-17T03:54:57.466Z,97352.27
2022-08-17T03:57:26.432Z,97354.29
2022-08-17T03:59:54.665Z,97357.55
2022-08-17T04:02:24.337Z,97360.59
2022-08-17T04:04:52.814Z,97363.88
2022-08-17T04:07:22.008Z,97361.92
2022-08-17T04:09:50.129Z,97365.98
2022-08-17T04:12:19.247Z,97370.23
2022-08-17T04:14:53.286Z,97370.25
2022-08-17T04:17:24.248Z,97367.60
2022-08-17T04:19:53.086Z,97371.45
2022-08-17T04:22:33.121Z,97371.98
2022-08-17T04:25:07.121Z,97374.88
2022-08-17T04:27:35.055Z,97373.88
2022-08-17T04:30:03.192Z,97371.75
2022-08-17T04:33:05.191Z,97370.90
2022-08-17T04:35:24.803Z,97371.69
2022-08-17T04:37:52.819Z,97369.88
2022-08-17T04:40:39.905Z,97366.30
2022-08-17T04:43:09.415Z,97369.50
2022-08-17T04:45:41.091Z,97370.18
2022-08-17T04:48:29.737Z,97370.25
2022-08-17T04:51:07.446Z,97371.05
2022-08-17T04:53:35.886Z,97374.66
2022-08-17T04:56:04.508Z,97374.98
2022-08-17T04:58:32.309Z,97376.50
2022-08-17T05:01:00.254Z,97377.38
2022-08-17T05:03:28.316Z,97373.94
2022-08-17T05:05:56.095Z,97374.47
2022-08-17T05:08:23.999Z,97372.23
2022-08-17T05:10:52.252Z,97375.82
2022-08-17T05:13:22.228Z,97371.38
2022-08-17T05:15:53.508Z,97371.08
2022-08-17T05:18:22.331Z,97373.95
2022-08-17T05:20:52.940Z,97373.75
2022-08-17T05:23:21.867Z,97371.13
2022-08-17T05:25:51.795Z,97373.64
2022-08-17T05:28:24.257Z,97377.65
2022-08-17T05:30:56.650Z,97379.73
2022-08-17T05:33:26.512Z,97377.94
2022-08-17T05:35:55.883Z,97378.90
2022-08-17T05:38:25.692Z,97383.88
2022-08-17T05:40:54.431Z,97387.15
2022-08-17T05:43:24.478Z,97388.20
2022-08-17T05:46:05.304Z,97388.98
2022-08-17T05:48:39.931Z,97395.71
2022-08-17T05:51:27.032Z,97391.84
2022-08-17T05:53:58.753Z,97394.48
2022-08-17T05:56:36.741Z,97392.07
2022-08-17T05:59:10.866Z,97395.79
2022-08-17T06:01:51.261Z,97393.95
2022-08-17T06:04:28.476Z,97392.73
2022-08-17T06:07:12.183Z,97387.36
2022-08-17T06:09:40.166Z,97387.36
2022-08-17T06:12:21.567Z,97386.68
2022-08-17T06:14:55.453Z,97384.25
2022-08-17T06:17:25.240Z,97385.73
2022-08-17T06:19:56.125Z,97383.98
2022-08-17T06:22:27.610Z,97383.10
2022-08-17T06:25:02.182Z,97382.61
2022-08-17T06:27:38.869Z,97377.54
2022-08-17T06:30:09.409Z,97372.68
2022-08-17T06:32:42.874Z,97370.01
2022-08-17T06:35:19.413Z,97370.30
2022-08-17T06:37:58.416Z,97369.67
2022-08-17T06:40:29.216Z,97370.40
2022-08-17T06:43:06.625Z,97366.77
2022-08-17T06:45:38.204Z,97361.89
2022-08-17T06:48:15.459Z,97364.94
2022-08-17T06:50:46.238Z,97368.38
2022-08-17T06:53:14.139Z,97372.28
2022-08-17T06:55:48.427Z,97370.80
2022-08-17T06:58:21.244Z,97370.59
2022-08-17T07:00:56.601Z,97374.73
2022-08-17T07:03:32.053Z,97384.23
2022-08-17T07:06:19.493Z,97384.37
2022-08-17T07:08:47.669Z,97392.64
2022-08-17T07:11:17.352Z,97391.52
2022-08-17T07:13:51.142Z,97391.89
2022-08-17T07:16:20.463Z,97390.02
2022-08-17T07:18:51.222Z,97393.39
2022-08-17T07:21:29.334Z,97390.86
2022-08-17T07:24:03.937Z,97396.08
2022-08-17T07:26:31.762Z,97391.60
2022-08-17T07:29:00.814Z,97388.55
2022-08-17T07:31:30.590Z,97388.22
2022-08-17T07:34:00.966Z,97391.00
2022-08-17T07:36:33.797Z,97392.63
2022-08-17T07:39:02.728Z,97387.30
2022-08-17T07:41:53.042Z,97386.98
2022-08-17T07:44:21.920Z,97386.50
2022-08-17T07:47:10.872Z,97387.83
2022-08-17T07:49:40.687Z,97386.17
2022-08-17T07:52:13.398Z,97386.30
2022-08-17T07:54:57.818Z,97387.18
2022-08-17T07:57:33.560Z,97385.15
2022-08-17T08:00:01.629Z,97383.36
2022-08-17T08:02:38.522Z,97381.65
2022-08-17T08:05:29.934Z,97384.09
2022-08-17T08:08:18.547Z,97379.09
2022-08-17T08:10:57.592Z,97371.98
2022-08-17T08:13:28.924Z,97375.11
2022-08-17T08:16:11.870Z,97369.19
2022-08-17T08:18:55.905Z,97368.45
2022-08-17T08:21:29.104Z,97367.48
2022-08-17T08:24:05.572Z,97366.67
2022-08-17T08:26:43.068Z,97372.41
2022-08-17T08:29:10.930Z,97372.64
2022-08-17T08:31:42.204Z,97368.69
2022-08-17T08:34:53.163Z,97369.45
2022-08-17T08:37:34.470Z,97371.50
2022-08-17T08:40:13.354Z,97376.08
2022-08-17T08:43:00.147Z,97377.69
2022-08-17T08:45:32.123Z,97374.41
2022-08-17T08:48:22.698Z,97373.20
2022-08-17T08:50:54.570Z,97383.21
2022-08-17T08:53:26.697Z,97375.98
2022-08-17T08:56:13.703Z,97364.09
2022-08-17T08:59:03.484Z,97367.14
2022-08-17T09:01:38.235Z,97369.27
2022-08-17T09:04:25.829Z,97365.88
2022-08-17T09:07:00.826Z,97361.73
2022-08-17T09:09:48.308Z,97365.71
2022-08-17T09:12:31.567Z,97364.32
2022-08-17T09:15:12.969Z,97363.11
2022-08-17T09:18:08.572Z,97360.80
2022-08-17T09:20:50.054Z,97362.20
2022-08-17T09:23:39.600Z,97370.65
2022-08-17T09:26:22.575Z,97371.14
2022-08-17T09:28:51.894Z,97371.74
2022-08-17T09:31:32.769Z,97372.91
2022-08-17T09:34:12.833Z,97372.17
2022-08-17T09:37:01.968Z,97371.58
2022-08-17T09:39:34.714Z,97371.16
2022-08-17T09:42:10.601Z,97379.92
2022-08-17T09:44:40.281Z,97379.20
2022-08-17T09:47:26.653Z,97381.83
2022-08-17T09:50:00.486Z,97376.45
2022-08-17T09:52:29.539Z,97381.38
2022-08-17T09:54:59.295Z,97385.12
2022-08-17T09:57:31.350Z,97393.60
2022-08-17T09:59:59.280Z,97393.65
2022-08-17T10:02:40.621Z,97391.73
2022-08-17T10:05:13.901Z,97383.95
2022-08-17T10:08:02.391Z,97377.45
2022-08-17T10:10:37.570Z,97378.70
2022-08-17T10:13:19.705Z,97377.13
2022-08-17T10:16:00.584Z,97375.36
2022-08-17T10:18:35.301Z,97366.46
2022-08-17T10:21:29.786Z,97363.47
2022-08-17T10:24:28.007Z,97358.00
2022-08-17T10:26:58.251Z,97359.13
2022-08-17T10:29:29.126Z,97357.64
2022-08-17T10:32:03.541Z,97352.58
2022-08-17T10:34:44.307Z,97354.02
2022-08-17T10:37:22.772Z,97353.25
2022-08-17T10:40:09.585Z,97355.30
2022-08-17T10:42:44.503Z,97349.98
2022-08-17T10:45:18.035Z,97344.22
2022-08-17T10:48:05.239Z,97336.73
2022-08-17T10:50:47.604Z,97336.05
2022-08-17T10:53:46.073Z,97339.61
2022-08-17T10:56:14.055Z,97340.23
2022-08-17T10:58:55.863Z,97338.71
2022-08-17T11:01:33.182Z,97333.11
2022-08-17T11:04:08.997Z,97332.71
2022-08-17T11:06:42.060Z,97339.28
2022-08-17T11:09:15.995Z,97337.48
2022-08-17T11:11:55.782Z,97337.83
2022-08-17T11:14:26.334Z,97339.11
2022-08-17T11:17:13.129Z,97339.00
2022-08-17T11:19:57.381Z,97337.85
2022-08-17T11:22:33.599Z,97341.77
2022-08-17T11:25:14.197Z,97342.39
2022-08-17T11:27:43.091Z,97341.15
2022-08-17T11:30:13.041Z,97340.71
2022-08-17T11:32:47.378Z,97338.29
2022-08-17T11:35:21.835Z,97336.34
2022-08-17T11:37:50.010Z,97335.14
2022-08-17T11:40:17.826Z,97331.31
2022-08-17T11:42:51.614Z,97323.17
2022-08-17T11:45:32.313Z,97322.31
2022-08-17T11:48:32.068Z,97320.02
2022-08-17T11:51:25.125Z,97322.23
2022-08-17T11:54:21.533Z,97316.86
2022-08-17T11:56:49.161Z,97320.90
2022-08-17T11:59:59.081Z,97317.51
2022-08-17T12:02:31.589Z,97316.51
2022-08-17T12:05:02.015Z,97313.48
2022-08-17T12:07:32.552Z,97307.98
2022-08-17T12:10:01.043Z,97300.77
2022-08-17T12:12:33.221Z,97302.90
2022-08-17T12:15:10.718Z,97303.93
2022-08-17T12:17:42.656Z,97309.60
2022-08-17T12:20:20.047Z,97312.86
2022-08-17T12:23:04.182Z,97306.91
2022-08-17T12:25:45.719Z,97304.19
2022-08-17T12:28:26.501Z,97293.02
2022-08-17T12:30:56.502Z,97290.59
2022-08-17T12:33:28.400Z,97287.44
2022-08-17T12:36:08.590Z,97286.50
2022-08-17T12:38:38.169Z,97289.48
2022-08-17T12:41:26.302Z,97292.67
2022-08-17T12:43:58.723Z,97296.38
2022-08-17T12:46:26.625Z,97294.59
2022-08-17T12:48:58.684Z,97292.48
2022-08-17T12:51:29.183Z,97283.81
2022-08-17T12:53:57.160Z,97277.27
2022-08-17T12:56:25.375Z,97275.34
2022-08-17T12:58:54.512Z,97276.14
2022-08-17T13:01:25.140Z,97285.63
2022-08-17T13:03:55.099Z,97284.29
2022-08-17T13:06:31.549Z,97280.58
2022-08-17T13:09:12.694Z,97278.29
2022-08-17T13:11:48.762Z,97280.87
2022-08-17T13:14:19.360Z,97273.67
2022-08-17T13:16:52.600Z,97271.92
2022-08-17T13:19:29.734Z,97275.56
2022-08-17T13:22:11.480Z,97271.92
2022-08-17T13:24:49.110Z,97276.14
2022-08-17T13:27:20.320Z,97275.57
2022-08-17T13:29:53.778Z,97275.56
2022-08-17T13:32:23.597Z,97281.95
2022-08-17T13:35:12.516Z,97279.86
2022-08-17T13:37:56.760Z,97279.88
2022-08-17T13:40:26.284Z,97286.42
2022-08-17T13:42:55.528Z,97285.66
2022-08-17T13:45:36.623Z,97289.52
2022-08-17T13:48:16.146Z,97292.73
2022-08-17T13:50:59.688Z,97290.61
2022-08-17T13:53:37.382Z,97296.27
2022-08-17T13:56:38.373Z,97302.77
2022-08-17T13:59:00.979Z,97300.39
2022-08-17T14:01:34.913Z,97299.41
2022-08-17T14:04:13.533Z,97296.42
2022-08-17T14:06:55.589Z,97297.43
2022-08-17T14:09:49.449Z,97294.63
2022-08-17T14:12:19.963Z,97307.91
2022-08-17T14:14:49.704Z,97311.21
2022-08-17T14:17:18.763Z,97304.33
2022-08-17T14:19:46.528Z,97296.21
2022-08-17T14:22:31.427Z,97297.53
2022-08-17T14:25:01.652Z,97294.43
2022-08-17T14:27:33.655Z,97291.61
2022-08-17T14:30:10.553Z,97291.02
2022-08-17T14:32:41.688Z,97286.17
2022-08-17T14:35:11.813Z,97288.98
2022-08-17T14:37:39.775Z,97301.73
2022-08-17T14:40:10.730Z,97305.38
2022-08-17T14:42:39.934Z,97313.01
2022-08-17T14:45:32.325Z,97311.23
2022-08-17T14:47:57.772Z,97309.25
2022-08-17T14:50:25.887Z,97310.76
2022-08-17T14:52:56.411Z,97304.45
2022-08-17T14:55:26.583Z,97304.41
2022-08-17T14:57:54.558Z,97309.22
2022-08-17T15:00:23.064Z,97304.02
2022-08-17T15:02:53.890Z,97303.16
2022-08-17T15:05:24.814Z,97309.13
2022-08-17T15:07:53.665Z,97310.17
2022-08-17T15:10:22.074Z,97310.36
2022-08-17T15:12:49.962Z,97308.35
2022-08-17T15:15:18.267Z,97305.16
2022-08-17T15:17:46.411Z,97305.54
2022-08-17T15:20:16.024Z,97307.08
2022-08-17T15:22:45.542Z,97311.35
2022-08-17T15:25:13.939Z,97320.45
2022-08-17T15:27:42.088Z,97325.27
2022-08-17T15:30:10.263Z,97334.70
2022-08-17T15:32:39.649Z,97341.47
2022-08-17T15:35:11.833Z,97370.80
2022-08-17T15:37:40.537Z,97382.67
2022-08-17T15:40:09.240Z,97381.56
2022-08-17T15:42:37.378Z,97402.07
2022-08-17T15:45:07.486Z,97428.55
2022-08-17T15:47:36.719Z,97422.05
2022-08-17T15:50:08.798Z,97420.77
2022-08-17T15:52:40.292Z,97420.21
2022-08-17T15:55:12.545Z,97407.17
2022-08-17T15:57:40.777Z,97402.41
2022-08-17T16:00:09.359Z,97403.76
2022-08-17T16:03:45.712Z,97413.40
2022-08-17T16:05:31.127Z,97416.61
2022-08-17T16:07:59.959Z,97409.00
2022-08-17T16:10:35.365Z,97395.14
2022-08-17T16:13:04.381Z,97393.79
2022-08-17T16:15:32.435Z,97394.14
2022-08-17T16:18:00.445Z,97396.95
2022-08-17T16:20:28.484Z,97399.31
2022-08-17T16:22:56.961Z,97406.81
2022-08-17T16:25:40.307Z,97406.52
2022-08-17T16:28:17.489Z,97400.11
2022-08-17T16:30:45.612Z,97404.15
2022-08-17T16:33:13.844Z,97404.56
2022-08-17T16:35:42.195Z,97410.25
2022-08-17T16:38:11.096Z,97416.36
2022-08-17T16:40:39.234Z,97423.48
2022-08-17T16:43:12.235Z,97427.77
2022-08-17T16:45:41.204Z,97426.88
2022-08-17T16:48:09.887Z,97427.17
2022-08-17T16:50:37.672Z,97423.20
2022-08-17T16:53:06.716Z,97432.58
2022-08-17T16:55:37.362Z,97433.41
2022-08-17T16:58:05.453Z,97433.19
2022-08-17T17:00:34.071Z,97432.41
2022-08-17T17:03:19.529Z,97435.90
2022-08-17T17:05:56.231Z,97443.45
2022-08-17T17:08:34.925Z,97449.98
2022-08-17T17:11:09.160Z,97452.02
2022-08-17T17:13:43.789Z,97452.12
2022-08-17T17:16:16.769Z,97456.36
2022-08-17T17:19:08.063Z,97455.65
2022-08-17T17:21:42.727Z,97450.36
2022-08-17T17:24:14.128Z,97454.16
2022-08-17T17:26:48.783Z,97448.30
2022-08-17T17:29:22.420Z,97454.18
2022-08-17T17:32:09.556Z,97456.73
2022-08-17T17:34:38.569Z,97450.63
2022-08-17T17:37:10.505Z,97446.27
2022-08-17T17:39:53.910Z,97448.60
2022-08-17T17:42:23.872Z,97451.42
2022-08-17T17:45:01.100Z,97450.13
2022-08-17T17:47:29.760Z,97453.69
2022-08-17T17:50:00.521Z,97453.96
2022-08-17T17:52:47.609Z,97454.50
2022-08-17T17:55:15.618Z,97451.29
2022-08-17T17:57:49.562Z,97458.33
2022-08-17T18:00:21.623Z,97461.23
2022-08-17T18:03:09.483Z,97467.58
2022-08-17T18:05:44.576Z,97470.40
2022-08-17T18:08:44.908Z,97471.81
2022-08-17T18:11:24.670Z,97467.88
2022-08-17T18:14:14.738Z,97470.16
2022-08-17T18:16:43.613Z,97473.51
2022-08-17T18:19:13.208Z,97481.77
2022-08-17T18:21:46.105Z,97475.15
2022-08-17T18:24:14.030Z,97469.92
2022-08-17T18:26:44.741Z,97470.17
2022-08-17T18:29:30.476Z,97472.15
2022-08-17T18:32:24.673Z,97476.87
2022-08-17T18:34:57.447Z,97476.25
2022-08-17T18:37:40.263Z,97479.22
2022-08-17T18:40:17.202Z,97478.21
2022-08-17T18:42:55.500Z,97477.21
2022-08-17T18:45:33.617Z,97478.45
2022-08-17T18:48:02.542Z,97479.92
2022-08-17T18:50:39.784Z,97483.56
2022-08-17T18:53:26.523Z,97484.11
2022-08-17T18:56:13.812Z,97482.20
2022-08-17T18:58:42.212Z,97483.02
2022-08-17T19:01:20.098Z,97481.05
2022-08-17T19:03:48.791Z,97478.86
2022-08-17T19:06:17.178Z,97480.44
2022-08-17T19:08:45.147Z,97483.21
2022-08-17T19:11:16.008Z,97483.90
2022-08-17T19:13:45.566Z,97487.16
2022-08-17T19:16:14.926Z,97483.42
2022-08-17T19:18:49.193Z,97488.19
2022-08-17T19:21:30.537Z,97488.85
2022-08-17T19:24:04.578Z,97490.73
2022-08-17T19:26:55.263Z,97488.83
2022-08-17T19:29:39.441Z,97488.85
2022-08-17T19:32:08.966Z,97493.52
2022-08-17T19:34:37.804Z,97490.06
2022-08-17T19:37:11.671Z,97489.44
2022-08-17T19:39:55.429Z,97488.28
2022-08-17T19:42:42.491Z,97490.99
2022-08-17T19:45:13.344Z,97494.71
2022-08-17T19:47:55.409Z,97494.44
2022-08-17T19:50:41.570Z,97491.77
2022-08-17T19:53:27.711Z,97491.54
2022-08-17T19:56:12.243Z,97487.41
2022-08-17T19:58:58.655Z,97487.20
2022-08-17T20:01:44.810Z,97489.98
2022-08-17T20:04:12.613Z,97489.05
2022-08-17T20:06:43.258Z,97489.71
2022-08-17T20:09:14.936Z,97491.41
2022-08-17T20:11:53.657Z,97489.38
2022-08-17T20:14:24.025Z,97492.65
2022-08-17T20:16:52.707Z,97496.91
2022-08-17T20:19:39.343Z,97492.09
2022-08-17T20:22:12.064Z,97497.59
2022-08-17T20:24:44.532Z,97497.44
2022-08-17T20:27:12.250Z,97499.10
2022-08-17T20:30:00.508Z,97499.52
2022-08-17T20:32:53.132Z,97499.53
2022-08-17T20:35:23.649Z,97500.12
2022-08-17T20:37:53.780Z,97496.04
2022-08-17T20:40:25.986Z,97493.38
2022-08-17T20:42:54.448Z,97492.38
2022-08-17T20:45:22.376Z,97490.23
2022-08-17T20:48:18.672Z,97488.80
2022-08-17T20:50:43.787Z,97488.56
2022-08-17T20:53:13.664Z,97486.05
2022-08-17T20:55:52.408Z,97488.14
2022-08-17T20:58:29.974Z,97483.43
2022-08-17T21:01:01.817Z,97485.56
2022-08-17T21:03:43.149Z,97489.23
2022-08-17T21:06:19.428Z,97488.91
2022-08-17T21:08:57.699Z,97488.15
2022-08-17T21:11:56.989Z,97491.64
2022-08-17T21:14:25.238Z,97493.59
2022-08-17T21:17:02.907Z,97491.48
2022-08-17T21:20:07.697Z,97491.20
2022-08-17T21:22:43.246Z,97486.17
2022-08-17T21:25:10.983Z,97480.97
2022-08-17T21:27:50.904Z,97482.65
2022-08-17T21:30:44.631Z,97487.39
2022-08-17T21:33:25.316Z,97492.48
2022-08-17T21:35:58.968Z,97487.46
2022-08-17T21:38:57.386Z,97488.05
2022-08-17T21:41:27.640Z,97488.15
2022-08-17T21:44:11.793Z,97489.57
2022-08-17T21:46:46.620Z,97493.52
2022-08-17T21:49:17.835Z,97494.40
2022-08-17T21:51:50.197Z,97495.64
2022-08-17T21:54:26.725Z,97496.45
2022-08-17T21:56:55.016Z,97497.10
2022-08-17T21:59:26.209Z,97494.81
2022-08-17T22:01:58.684Z,97493.14
2022-08-17T22:04:37.163Z,97493.91
2022-08-17T22:07:06.600Z,97496.35
2022-08-17T22:09:40.715Z,97494.73
2022-08-17T22:12:19.332Z,97498.30
2022-08-17T22:14:57.987Z,97498.81
2022-08-17T22:17:35.954Z,97498.45
2022-08-17T22:20:14.553Z,97497.34
2022-08-17T22:23:04.397Z,97498.70
2022-08-17T22:25:35.999Z,97495.02
2022-08-17T22:28:05.679Z,97490.05
2022-08-17T22:30:41.519Z,97490.83
2022-08-17T22:33:30.180Z,97496.48
2022-08-17T22:36:29.179Z,97495.13
2022-08-17T22:39:09.213Z,97491.43
2022-08-17T22:41:42.684Z,97493.73
2022-08-17T22:44:15.799Z,97490.41
2022-08-17T22:46:52.373Z,97492.48
2022-08-17T22:49:26.840Z,97488.03
2022-08-17T22:52:05.858Z,97485.49
2022-08-17T22:54:52.173Z,97487.75
2022-08-17T22:57:40.979Z,97487.33
2022-08-17T23:00:28.179Z,97488.89
2022-08-17T23:03:05.705Z,97490.85
2022-08-17T23:05:34.471Z,97494.03
2022-08-17T23:08:03.121Z,97493.18
2022-08-17T23:10:30.884Z,97492.68
2022-08-17T23:12:59.973Z,97493.77
2022-08-17T23:15:33.827Z,97489.09
2022-08-17T23:18:04.737Z,97492.77
2022-08-17T23:20:34.679Z,97490.48
2022-08-17T23:23:03.844Z,97492.40
2022-08-17T23:25:33.656Z,97491.70
2022-08-17T23:28:03.000Z,97489.48
2022-08-17T23:30:32.293Z,97487.17
2022-08-17T23:33:04.970Z,97486.70
2022-08-17T23:35:39.904Z,97485.63
2022-08-17T23:38:09.909Z,97482.22
2022-08-17T23:40:39.592Z,97481.48
2022-08-17T23:43:23.457Z,97476.75
2022-08-17T23:45:54.680Z,97470.53
2022-08-17T23:48:28.555Z,97471.02
2022-08-17T23:51:09.205Z,97470.17
2022-08-17T23:53:40.287Z,97476.25
2022-08-17T23:56:11.269Z,97471.13
2022-08-17T23:58:42.235Z,97471.23
